NCAR-RAP Real-Time Weather Data

Output produced by METARs form (23 September 2023  04:29 UTC)
found at http://weather.rap.ucar.edu/surface/
 
VTBD 230400Z 16003KT 100V240 9999 FEW020 SCT040 32/24 Q1010 NOSIG
VTBD 230330Z VRB02KT 9999 FEW020 31/25 Q1010 NOSIG
VTBD 230300Z VRB02KT 9999 FEW020 31/24 Q1011 NOSIG
VTBD 230230Z VRB01KT 9999 FEW020 31/25 Q1011 NOSIG
VTBD 230200Z 12003KT 080V210 9999 FEW020 30/24 Q1011 NOSIG
VTBD 230130Z VRB02KT 9999 FEW020 29/25 Q1011 NOSIG
VTBD 230100Z 24004KT 180V280 9999 FEW020 28/24 Q1010 NOSIG
VTBD 230030Z 28003KT 240V350 9999 FEW020 28/24 Q1010 NOSIG
VTBD 230000Z 00000KT 9999 FEW020 27/24 Q1010 NOSIG
VTBD 222330Z VRB01KT 9999 FEW020 27/24 Q1009 NOSIG
VTBD 222300Z 36003KT 320V020 9999 FEW020 27/24 Q1009 NOSIG
VTBD 222230Z 00000KT 9999 FEW020 27/24 Q1009 NOSIG
VTBD 222200Z 00000KT 9999 FEW020 27/24 Q1008 NOSIG
VTBD 222130Z 26003KT 230V300 9999 FEW020 27/24 Q1008 NOSIG
VTBD 222100Z 27005KT 9999 FEW020 27/24 Q1008 NOSIG
VTBD 222030Z 26005KT 9999 FEW020 27/23 Q1008 NOSIG
VTBD 222000Z 27005KT 240V300 9999 FEW020 27/24 Q1008 NOSIG
VTBD 221930Z 27005KT 240V310 9999 FEW020 27/24 Q1008 NOSIG
VTBD 221900Z 28004KT 240V330 9999 FEW020 27/24 Q1008 NOSIG
VTBD 221830Z 21005KT 9999 FEW020 27/24 Q1008 NOSIG
VTBD 221800Z 20006KT 160V220 9999 FEW020 27/23 Q1009 NOSIG
VTBD 221730Z 16006KT 9999 FEW020 27/24 Q1009 NOSIG
VTBD 221700Z 21006KT 9999 FEW020 SCT040 27/25 Q1010 NOSIG
VTBD 221630Z 17010KT 9999 FEW020CB SCT040 28/25 Q1010 NOSIG